ADDS METAR Data INFO
IDs: Format: Raw Decoded Include TAF

Data at: 0300 UTC 21 Oct 2017

KJWN 210255Z AUTO 00000KT 10SM CLR 14/11 A3015 RMK A01
KJWN 210235Z AUTO 00000KT 10SM CLR 14/11 A3015 RMK A01
KJWN 210215Z AUTO 00000KT 10SM CLR 15/11 A3015 RMK A01
KJWN 210155Z AUTO 00000KT 10SM CLR 15/11 A3016 RMK A01
KJWN 210135Z AUTO 00000KT 10SM CLR 15/11 A3016 RMK A01
KJWN 210115Z AUTO 00000KT 10SM CLR 15/11 A3016 RMK A01
KJWN 210055Z AUTO 00000KT 10SM CLR 15/11 A3016 RMK A01
KJWN 210035Z AUTO 00000KT 10SM CLR 17/11 A3015 RMK A01
KJWN 210015Z AUTO 00000KT 10SM CLR 18/10 A3015 RMK A01
KJWN 202355Z AUTO 00000KT 9SM CLR 17/10 A3015 RMK A01
KJWN 202335Z AUTO 00000KT 10SM CLR 18/10 A3015 RMK A01
KJWN 202315Z AUTO 00000KT 10SM CLR 20/09 A3015 RMK A01
KJWN 202255Z AUTO 00000KT 10SM CLR 22/07 A3015 RMK A01
KJWN 202235Z AUTO 00000KT 10SM CLR 24/06 A3014 RMK A01
KJWN 202215Z AUTO 00000KT 10SM CLR 24/06 A3014 RMK A01
KJWN 202155Z AUTO 09003KT 10SM CLR 24/06 A3014 RMK A01
KJWN 202135Z AUTO 06004KT 10SM CLR 25/05 A3014 RMK A01
KJWN 202115Z AUTO VRB06KT 10SM CLR 25/06 A3015 RMK A01
KJWN 202055Z AUTO 07004KT 10SM CLR 25/07 A3016 RMK A01
KJWN 202035Z AUTO 05005KT 10SM CLR 25/07 A3016 RMK A01
KJWN 202015Z AUTO VRB03KT 9SM CLR 25/07 A3016 RMK A01
KJWN 201955Z AUTO 09006KT 9SM CLR 25/06 A3017 RMK A01
KJWN 201935Z AUTO 14004KT 10SM CLR 25/07 A3017 RMK A01
KJWN 201915Z AUTO 09005KT 10SM CLR 24/07 A3018 RMK A01
KJWN 201855Z AUTO VRB03G10KT 10SM CLR 24/08 A3019 RMK A01
KJWN 201835Z AUTO 00000KT 10SM CLR 24/08 A3020 RMK A01
KJWN 201815Z AUTO 03005KT 10SM CLR 23/08 A3021 RMK A01
KJWN 201755Z AUTO VRB05KT 10SM CLR 23/09 A3023 RMK A01
KJWN 201735Z AUTO 13004KT 10SM CLR 22/10 A3024 RMK A01
KJWN 201715Z AUTO VRB05KT 10SM CLR 22/10 A3025 RMK A01
KJWN 201655Z AUTO 00000KT 10SM CLR 21/09 A3026 RMK A01
KJWN 201635Z AUTO 00000KT 10SM CLR 20/10 A3028 RMK A01
KJWN 201615Z AUTO 00000KT 10SM CLR 19/11 A3029 RMK A01
KJWN 201555Z AUTO 00000KT 10SM CLR 18/10 A3029 RMK A01
KJWN 201535Z AUTO 00000KT 10SM CLR 17/10 A3029 RMK A01
KJWN 201515Z AUTO 00000KT 10SM CLR 16/11 A3030 RMK A01
KJWN 201455Z AUTO 00000KT 10SM CLR 15/11 A3030 RMK A01
KJWN 201435Z AUTO 00000KT 10SM CLR 13/11 A3030 RMK A01
KJWN 201415Z AUTO 00000KT 9SM CLR 12/11 A3030 RMK A01
KJWN 201355Z AUTO 06003KT 10SM CLR 11/11 A3030 RMK A01
KJWN 201335Z AUTO 00000KT 9SM CLR 10/10 A3030 RMK A01
KJWN 201315Z AUTO 00000KT 3/4SM BR VV005 09/09 A3029 RMK A01
KJWN 201255Z AUTO 00000KT M1/4SM FG VV000 07/07 A3029 RMK A01
KJWN 201235Z AUTO 00000KT M1/4SM FG VV000 06/06 A3029 RMK A01
KJWN 201215Z AUTO 00000KT 3SM BR CLR 07/06 A3029 RMK A01
KJWN 201155Z AUTO 00000KT 1/4SM FG VV002 07/07 A3028 RMK A01
KJWN 201135Z AUTO 00000KT M1/4SM FG BKN001 06/06 A3028 RMK A01
KJWN 201115Z AUTO 00000KT 1SM BR BKN001 07/07 A3027 RMK A01 VIS 1/2V5
KJWN 201055Z AUTO 00000KT M1/4SM FG OVC001 07/07 A3027 RMK A01
KJWN 201035Z AUTO 00000KT M1/4SM FG OVC001 07/07 A3027 RMK A01
KJWN 201015Z AUTO 00000KT 10SM CLR 08/08 A3026 RMK A01
KJWN 200955Z AUTO 00000KT 1 1/2SM BR CLR 08/08 A3025 RMK A01 VIS 3/4V5
KJWN 200935Z AUTO 00000KT M1/4SM FG OVC002 08/08 A3025 RMK A01
KJWN 200915Z AUTO 00000KT 1 1/2SM BR CLR 08/08 A3025 RMK A01 VIS 1V5
KJWN 200855Z AUTO 00000KT 1 1/4SM BR CLR 09/08 A3024 RMK A01 VIS 3/4V5
KJWN 200835Z AUTO 00000KT 9SM CLR 09/08 A3024 RMK A01
KJWN 200815Z AUTO 00000KT 10SM CLR 09/08 A3024 RMK A01
KJWN 200755Z AUTO 00000KT 10SM CLR 09/08 A3024 RMK A01
KJWN 200735Z AUTO 00000KT 10SM CLR 10/09 A3023 RMK A01
KJWN 200715Z AUTO 00000KT 10SM CLR 09/09 A3023 RMK A01
KJWN 200655Z AUTO 00000KT 10SM CLR 10/09 A3023 RMK A01
KJWN 200635Z AUTO 00000KT 10SM CLR 10/10 A3023 RMK A01
KJWN 200615Z AUTO 00000KT 10SM CLR 10/09 A3023 RMK A01
KJWN 200555Z AUTO 00000KT 10SM CLR 10/10 A3023 RMK A01
KJWN 200535Z AUTO 00000KT 10SM CLR 10/09 A3022 RMK A01
KJWN 200515Z AUTO 00000KT 10SM CLR 10/10 A3022 RMK A01
KJWN 200455Z AUTO 00000KT 10SM CLR 11/10 A3023 RMK A01
KJWN 200435Z AUTO 00000KT 10SM CLR 11/10 A3022 RMK A01
KJWN 200415Z AUTO 00000KT 10SM CLR 12/10 A3022 RMK A01
KJWN 200355Z AUTO 00000KT 10SM CLR 12/10 A3023 RMK A01
KJWN 200335Z AUTO 00000KT 10SM CLR 12/10 A3023 RMK A01
KJWN 200315Z AUTO 00000KT 10SM CLR 12/10 A3023 RMK A01
KJWN 200255Z AUTO 00000KT 10SM CLR 13/11 A3022 RMK A01
KJWN 200235Z AUTO 00000KT 10SM CLR 13/11 A3022 RMK A01
KJWN 200215Z AUTO 00000KT 10SM CLR 14/11 A3022 RMK A01
KJWN 200155Z AUTO 00000KT 10SM CLR 15/11 A3021 RMK A01
KJWN 200135Z AUTO 00000KT 10SM CLR 14/11 A3021 RMK A01
KJWN 200115Z AUTO 00000KT 10SM CLR 15/10 A3022 RMK A01
KJWN 200055Z AUTO 00000KT 10SM CLR 15/10 A3022 RMK A01
KJWN 200035Z AUTO 00000KT 10SM CLR 16/10 A3022 RMK A01
KJWN 200015Z AUTO 00000KT 10SM CLR 17/10 A3022 RMK A01
KJWN 192355Z AUTO 00000KT 10SM CLR 19/09 A3021 RMK A01
KJWN 192335Z AUTO 00000KT 10SM CLR 20/09 A3021 RMK A01
KJWN 192315Z AUTO 00000KT 10SM CLR 20/09 A3021 RMK A01
KJWN 192255Z AUTO 21003KT 10SM CLR 21/09 A3020 RMK A01
KJWN 192235Z AUTO 21004KT 10SM CLR 22/09 A3020 RMK A01
KJWN 192215Z AUTO 21005KT 10SM CLR 23/08 A3020 RMK A01
KJWN 192155Z AUTO 21004KT 10SM CLR 24/08 A3020 RMK A01
KJWN 192135Z AUTO 19005KT 10SM CLR 24/08 A3020 RMK A01
KJWN 192115Z AUTO 21006KT 10SM CLR 24/08 A3021 RMK A01
KJWN 192055Z AUTO VRB03KT 10SM CLR 24/07 A3021 RMK A01
KJWN 192035Z AUTO 00000KT 10SM CLR 24/08 A3022 RMK A01
KJWN 192015Z AUTO 19005KT 8SM CLR 24/08 A3022 RMK A01
KJWN 191955Z AUTO 14004KT 10SM CLR 23/08 A3022 RMK A01
KJWN 191935Z AUTO 00000KT 10SM CLR 23/07 A3023 RMK A01
KJWN 191915Z AUTO 00000KT 10SM CLR 23/08 A3023 RMK A01
KJWN 191855Z AUTO 00000KT 10SM CLR 23/08 A3023 RMK A01
KJWN 191835Z AUTO 20005KT 9SM CLR 22/09 A3025 RMK A01
KJWN 191815Z AUTO 15004KT 9SM CLR 22/09 A3025 RMK A01
KJWN 191755Z AUTO 00000KT 10SM CLR 22/09 A3026 RMK A01
KJWN 191735Z AUTO 28006KT 10SM CLR 22/08 A3027 RMK A01
KJWN 191715Z AUTO 00000KT 10SM CLR 21/09 A3028 RMK A01
KJWN 191655Z AUTO 22007KT 9SM CLR 21/09 A3029 RMK A01
KJWN 191635Z AUTO VRB04KT 8SM CLR 20/09 A3029 RMK A01
KJWN 191615Z AUTO 00000KT 9SM CLR 20/09 A3030 RMK A01
KJWN 191555Z AUTO 18004KT 9SM CLR 19/09 A3030 RMK A01
KJWN 191535Z AUTO VRB05KT 9SM CLR 18/09 A3031 RMK A01
KJWN 191515Z AUTO 00000KT 8SM CLR 16/10 A3031 RMK A01